sensor_id;sensor_type;location;lat;lon;timestamp;temperature;humidity
21622;DHT22;10973;46.706;12.340;2023-04-28T00:22:03;7.60;99.90
21622;DHT22;10973;46.706;12.340;2023-04-28T00:24:30;7.60;99.90
21622;DHT22;10973;46.706;12.340;2023-04-28T00:26:58;7.50;99.90
21622;DHT22;10973;46.706;12.340;2023-04-28T00:29:25;7.50;99.90
21622;DHT22;10973;46.706;12.340;2023-04-28T00:31:54;7.40;99.90
21622;DHT22;10973;46.706;12.340;2023-04-28T00:34:21;7.30;99.90
21622;DHT22;10973;46.706;12.340;2023-04-28T00:36:48;7.20;99.90
21622;DHT22;10973;46.706;12.340;2023-04-28T00:39:16;7.10;99.90
21622;DHT22;10973;46.706;12.340;2023-04-28T00:41:43;7.00;99.90
21622;DHT22;10973;46.706;12.340;2023-04-28T00:44:10;7.00;99.90
21622;DHT22;10973;46.706;12.340;2023-04-28T00:46:38;7.10;99.90
21622;DHT22;10973;46.706;12.340;2023-04-28T00:49:05;7.10;99.90
21622;DHT22;10973;46.706;12.340;2023-04-28T00:51:32;6.90;99.90
21622;DHT22;10973;46.706;12.340;2023-04-28T00:58:58;6.70;99.90
21622;DHT22;10973;46.706;12.340;2023-04-28T01:01:26;6.70;99.90
21622;DHT22;10973;46.706;12.340;2023-04-28T01:03:53;6.70;99.90
21622;DHT22;10973;46.706;12.340;2023-04-28T01:06:26;6.50;99.90
21622;DHT22;10973;46.706;12.340;2023-04-28T01:08:54;6.50;99.90
21622;DHT22;10973;46.706;12.340;2023-04-28T01:11:22;6.40;99.90
21622;DHT22;10973;46.706;12.340;2023-04-28T01:13:50;6.40;99.90
21622;DHT22;10973;46.706;12.340;2023-04-28T01:16:17;6.40;99.90
21622;DHT22;10973;46.706;12.340;2023-04-28T01:18:46;6.40;99.90
21622;DHT22;10973;46.706;12.340;2023-04-28T01:21:14;6.40;99.90
21622;DHT22;10973;46.706;12.340;2023-04-28T01:23:52;6.30;99.90
21622;DHT22;10973;46.706;12.340;2023-04-28T01:26:19;6.30;99.90
21622;DHT22;10973;46.706;12.340;2023-04-28T01:28:49;6.20;99.90
21622;DHT22;10973;46.706;12.340;2023-04-28T01:31:16;6.20;99.90
21622;DHT22;10973;46.706;12.340;2023-04-28T01:33:44;6.20;99.90
21622;DHT22;10973;46.706;12.340;2023-04-28T01:36:11;6.20;99.90
21622;DHT22;10973;46.706;12.340;2023-04-28T01:38:38;6.30;99.90
21622;DHT22;10973;46.706;12.340;2023-04-28T01:41:05;6.20;99.90
21622;DHT22;10973;46.706;12.340;2023-04-28T01:43:32;6.20;99.90
21622;DHT22;10973;46.706;12.340;2023-04-28T01:46:00;6.20;99.90
21622;DHT22;10973;46.706;12.340;2023-04-28T01:48:27;6.20;99.90
21622;DHT22;10973;46.706;12.340;2023-04-28T01:50:54;6.30;99.90
21622;DHT22;10973;46.706;12.340;2023-04-28T01:53:22;6.20;99.90
21622;DHT22;10973;46.706;12.340;2023-04-28T01:55:49;6.20;99.90
21622;DHT22;10973;46.706;12.340;2023-04-28T01:58:16;6.20;99.90
21622;DHT22;10973;46.706;12.340;2023-04-28T02:00:44;6.30;99.90
21622;DHT22;10973;46.706;12.340;2023-04-28T02:03:11;6.20;99.90
21622;DHT22;10973;46.706;12.340;2023-04-28T02:05:39;6.30;99.90
21622;DHT22;10973;46.706;12.340;2023-04-28T02:08:06;6.20;99.90
21622;DHT22;10973;46.706;12.340;2023-04-28T02:10:33;6.10;99.90
21622;DHT22;10973;46.706;12.340;2023-04-28T02:13:01;6.20;99.90
21622;DHT22;10973;46.706;12.340;2023-04-28T02:15:28;6.10;99.90
21622;DHT22;10973;46.706;12.340;2023-04-28T02:17:55;6.20;99.90
21622;DHT22;10973;46.706;12.340;2023-04-28T02:20:23;6.10;99.90
21622;DHT22;10973;46.706;12.340;2023-04-28T02:22:52;6.00;99.90
21622;DHT22;10973;46.706;12.340;2023-04-28T02:25:20;6.10;99.90
21622;DHT22;10973;46.706;12.340;2023-04-28T02:27:47;6.10;99.90
21622;DHT22;10973;46.706;12.340;2023-04-28T02:30:15;6.10;99.90
21622;DHT22;10973;46.706;12.340;2023-04-28T02:32:42;6.00;99.90
21622;DHT22;10973;46.706;12.340;2023-04-28T02:35:09;6.10;99.90
21622;DHT22;10973;46.706;12.340;2023-04-28T02:37:37;6.00;99.90
21622;DHT22;10973;46.706;12.340;2023-04-28T02:40:04;6.00;99.90
21622;DHT22;10973;46.706;12.340;2023-04-28T02:42:32;5.90;99.90
21622;DHT22;10973;46.706;12.340;2023-04-28T02:45:05;5.90;99.90
21622;DHT22;10973;46.706;12.340;2023-04-28T02:47:32;5.80;99.90
21622;DHT22;10973;46.706;12.340;2023-04-28T02:50:00;5.60;99.90
21622;DHT22;10973;46.706;12.340;2023-04-28T02:52:27;5.60;99.90
21622;DHT22;10973;46.706;12.340;2023-04-28T02:54:54;5.70;99.90
21622;DHT22;10973;46.706;12.340;2023-04-28T02:57:22;5.70;99.90
21622;DHT22;10973;46.706;12.340;2023-04-28T02:59:49;5.70;99.90
21622;DHT22;10973;46.706;12.340;2023-04-28T03:02:17;5.70;99.90
21622;DHT22;10973;46.706;12.340;2023-04-28T03:04:44;5.70;99.90
21622;DHT22;10973;46.706;12.340;2023-04-28T03:07:11;5.60;99.90
21622;DHT22;10973;46.706;12.340;2023-04-28T03:09:39;5.60;99.90
21622;DHT22;10973;46.706;12.340;2023-04-28T03:12:08;5.60;99.90
21622;DHT22;10973;46.706;12.340;2023-04-28T03:14:35;5.60;99.90
21622;DHT22;10973;46.706;12.340;2023-04-28T03:17:02;5.70;99.90
21622;DHT22;10973;46.706;12.340;2023-04-28T03:19:30;5.70;99.90
21622;DHT22;10973;46.706;12.340;2023-04-28T03:21:57;5.60;99.90
21622;DHT22;10973;46.706;12.340;2023-04-28T03:24:24;5.70;99.90
21622;DHT22;10973;46.706;12.340;2023-04-28T03:26:51;5.50;99.90
21622;DHT22;10973;46.706;12.340;2023-04-28T03:29:19;5.50;99.90
21622;DHT22;10973;46.706;12.340;2023-04-28T03:31:46;5.50;99.90
21622;DHT22;10973;46.706;12.340;2023-04-28T03:34:15;5.50;99.90
21622;DHT22;10973;46.706;12.340;2023-04-28T03:36:42;5.40;99.90
21622;DHT22;10973;46.706;12.340;2023-04-28T03:39:10;5.50;99.90
21622;DHT22;10973;46.706;12.340;2023-04-28T03:41:37;5.50;99.90
21622;DHT22;10973;46.706;12.340;2023-04-28T03:44:04;5.60;99.90
21622;DHT22;10973;46.706;12.340;2023-04-28T03:46:31;5.60;99.90
21622;DHT22;10973;46.706;12.340;2023-04-28T03:48:59;5.60;99.90
21622;DHT22;10973;46.706;12.340;2023-04-28T03:51:27;5.60;99.90
21622;DHT22;10973;46.706;12.340;2023-04-28T03:53:56;5.60;99.90
21622;DHT22;10973;46.706;12.340;2023-04-28T03:56:23;5.50;99.90
21622;DHT22;10973;46.706;12.340;2023-04-28T03:58:50;5.50;99.90
21622;DHT22;10973;46.706;12.340;2023-04-28T04:01:18;5.50;99.90
21622;DHT22;10973;46.706;12.340;2023-04-28T04:03:45;5.30;99.90
21622;DHT22;10973;46.706;12.340;2023-04-28T04:06:13;5.30;99.90
21622;DHT22;10973;46.706;12.340;2023-04-28T04:08:40;5.20;99.90
21622;DHT22;10973;46.706;12.340;2023-04-28T04:11:08;5.40;99.90
21622;DHT22;10973;46.706;12.340;2023-04-28T04:13:35;5.30;99.90
21622;DHT22;10973;46.706;12.340;2023-04-28T04:16:03;5.20;99.90
21622;DHT22;10973;46.706;12.340;2023-04-28T04:18:31;5.30;99.90
21622;DHT22;10973;46.706;12.340;2023-04-28T04:20:58;5.20;99.90
21622;DHT22;10973;46.706;12.340;2023-04-28T04:23:25;5.30;99.90
21622;DHT22;10973;46.706;12.340;2023-04-28T04:25:52;5.40;99.90
21622;DHT22;10973;46.706;12.340;2023-04-28T04:28:20;5.50;99.90
21622;DHT22;10973;46.706;12.340;2023-04-28T04:30:47;5.40;99.90
21622;DHT22;10973;46.706;12.340;2023-04-28T04:33:14;5.30;99.90
21622;DHT22;10973;46.706;12.340;2023-04-28T04:35:42;5.30;99.90
21622;DHT22;10973;46.706;12.340;2023-04-28T04:38:09;5.40;99.90
21622;DHT22;10973;46.706;12.340;2023-04-28T04:40:36;5.40;99.90
21622;DHT22;10973;46.706;12.340;2023-04-28T04:43:03;5.30;99.90
21622;DHT22;10973;46.706;12.340;2023-04-28T04:45:31;5.30;99.90
21622;DHT22;10973;46.706;12.340;2023-04-28T04:47:58;5.20;99.90
21622;DHT22;10973;46.706;12.340;2023-04-28T04:50:26;5.20;99.90
21622;DHT22;10973;46.706;12.340;2023-04-28T04:52:53;5.30;99.90
21622;DHT22;10973;46.706;12.340;2023-04-28T04:55:21;5.40;99.90
21622;DHT22;10973;46.706;12.340;2023-04-28T04:57:48;5.50;99.90
21622;DHT22;10973;46.706;12.340;2023-04-28T05:00:16;5.50;99.90
21622;DHT22;10973;46.706;12.340;2023-04-28T05:02:43;5.40;99.90
21622;DHT22;10973;46.706;12.340;2023-04-28T05:05:11;5.40;99.90
21622;DHT22;10973;46.706;12.340;2023-04-28T05:07:45;5.40;99.90
21622;DHT22;10973;46.706;12.340;2023-04-28T05:10:12;5.40;99.90
21622;DHT22;10973;46.706;12.340;2023-04-28T05:12:40;5.60;99.90
21622;DHT22;10973;46.706;12.340;2023-04-28T05:15:07;5.50;99.90
21622;DHT22;10973;46.706;12.340;2023-04-28T05:17:35;5.60;99.90
21622;DHT22;10973;46.706;12.340;2023-04-28T05:20:02;5.60;99.90
21622;DHT22;10973;46.706;12.340;2023-04-28T05:22:30;5.60;99.90
21622;DHT22;10973;46.706;12.340;2023-04-28T05:24:57;5.70;99.90
21622;DHT22;10973;46.706;12.340;2023-04-28T05:27:24;5.70;99.90
21622;DHT22;10973;46.706;12.340;2023-04-28T05:29:52;5.70;99.90
21622;DHT22;10973;46.706;12.340;2023-04-28T05:32:19;5.70;99.90
21622;DHT22;10973;46.706;12.340;2023-04-28T05:34:47;5.80;99.90
21622;DHT22;10973;46.706;12.340;2023-04-28T05:37:14;5.80;99.90
21622;DHT22;10973;46.706;12.340;2023-04-28T05:39:42;5.90;99.90
21622;DHT22;10973;46.706;12.340;2023-04-28T05:44:36;6.10;99.90
21622;DHT22;10973;46.706;12.340;2023-04-28T05:47:04;6.20;99.90
21622;DHT22;10973;46.706;12.340;2023-04-28T05:49:31;6.10;99.90
21622;DHT22;10973;46.706;12.340;2023-04-28T05:51:58;6.20;99.90
21622;DHT22;10973;46.706;12.340;2023-04-28T05:54:25;6.30;99.90
21622;DHT22;10973;46.706;12.340;2023-04-28T05:56:53;6.40;99.90
21622;DHT22;10973;46.706;12.340;2023-04-28T05:59:20;6.40;99.90
21622;DHT22;10973;46.706;12.340;2023-04-28T06:01:47;6.50;99.90
21622;DHT22;10973;46.706;12.340;2023-04-28T06:04:15;6.50;99.90
21622;DHT22;10973;46.706;12.340;2023-04-28T06:06:43;6.60;99.90
21622;DHT22;10973;46.706;12.340;2023-04-28T06:09:11;6.70;99.90
21622;DHT22;10973;46.706;12.340;2023-04-28T06:11:38;6.70;99.90
21622;DHT22;10973;46.706;12.340;2023-04-28T06:14:05;6.80;99.90
21622;DHT22;10973;46.706;12.340;2023-04-28T06:16:33;6.80;99.90
21622;DHT22;10973;46.706;12.340;2023-04-28T06:19:00;6.90;99.90
21622;DHT22;10973;46.706;12.340;2023-04-28T06:21:27;6.90;99.90
21622;DHT22;10973;46.706;12.340;2023-04-28T06:23:55;7.00;99.90
21622;DHT22;10973;46.706;12.340;2023-04-28T06:26:22;7.10;99.90
21622;DHT22;10973;46.706;12.340;2023-04-28T06:28:50;7.10;99.90
21622;DHT22;10973;46.706;12.340;2023-04-28T06:31:17;7.00;99.90
21622;DHT22;10973;46.706;12.340;2023-04-28T06:33:44;7.00;99.90
21622;DHT22;10973;46.706;12.340;2023-04-28T06:36:12;7.10;99.90
21622;DHT22;10973;46.706;12.340;2023-04-28T06:38:39;7.10;99.90
21622;DHT22;10973;46.706;12.340;2023-04-28T06:41:07;7.10;99.90
21622;DHT22;10973;46.706;12.340;2023-04-28T06:43:34;7.10;99.90
21622;DHT22;10973;46.706;12.340;2023-04-28T06:46:02;7.10;99.90
21622;DHT22;10973;46.706;12.340;2023-04-28T06:48:29;7.20;99.90
21622;DHT22;10973;46.706;12.340;2023-04-28T06:50:57;7.20;99.90
21622;DHT22;10973;46.706;12.340;2023-04-28T06:53:24;7.20;99.90
21622;DHT22;10973;46.706;12.340;2023-04-28T06:55:52;7.30;99.90
21622;DHT22;10973;46.706;12.340;2023-04-28T06:58:19;7.40;99.90
21622;DHT22;10973;46.706;12.340;2023-04-28T07:00:46;7.40;99.90
21622;DHT22;10973;46.706;12.340;2023-04-28T07:03:14;7.50;99.90
21622;DHT22;10973;46.706;12.340;2023-04-28T07:05:41;7.50;99.90
21622;DHT22;10973;46.706;12.340;2023-04-28T07:08:09;7.60;99.90
21622;DHT22;10973;46.706;12.340;2023-04-28T07:10:36;7.50;99.90
21622;DHT22;10973;46.706;12.340;2023-04-28T07:13:03;7.60;99.90
21622;DHT22;10973;46.706;12.340;2023-04-28T07:15:31;7.60;99.90
21622;DHT22;10973;46.706;12.340;2023-04-28T07:17:59;7.60;99.90
21622;DHT22;10973;46.706;12.340;2023-04-28T07:20:26;7.60;99.90
21622;DHT22;10973;46.706;12.340;2023-04-28T07:22:54;7.60;99.90
21622;DHT22;10973;46.706;12.340;2023-04-28T07:25:21;7.60;99.90
21622;DHT22;10973;46.706;12.340;2023-04-28T07:27:48;7.60;99.90
21622;DHT22;10973;46.706;12.340;2023-04-28T07:30:16;7.60;99.90
21622;DHT22;10973;46.706;12.340;2023-04-28T07:32:55;7.50;99.90
21622;DHT22;10973;46.706;12.340;2023-04-28T07:35:23;7.50;99.90
21622;DHT22;10973;46.706;12.340;2023-04-28T07:37:51;7.50;99.90
21622;DHT22;10973;46.706;12.340;2023-04-28T07:40:19;7.50;99.90
21622;DHT22;10973;46.706;12.340;2023-04-28T07:42:47;7.50;99.90
21622;DHT22;10973;46.706;12.340;2023-04-28T07:45:14;7.40;99.90
21622;DHT22;10973;46.706;12.340;2023-04-28T07:47:41;7.40;99.90
21622;DHT22;10973;46.706;12.340;2023-04-28T07:50:10;7.40;99.90
21622;DHT22;10973;46.706;12.340;2023-04-28T07:52:38;7.40;99.90
21622;DHT22;10973;46.706;12.340;2023-04-28T07:55:05;7.40;99.90
21622;DHT22;10973;46.706;12.340;2023-04-28T07:57:34;7.40;99.90
21622;DHT22;10973;46.706;12.340;2023-04-28T08:00:02;7.30;99.90
21622;DHT22;10973;46.706;12.340;2023-04-28T08:02:30;7.40;99.90
21622;DHT22;10973;46.706;12.340;2023-04-28T08:04:58;7.40;99.90
21622;DHT22;10973;46.706;12.340;2023-04-28T08:07:25;7.40;99.90
21622;DHT22;10973;46.706;12.340;2023-04-28T08:09:54;7.40;99.90
21622;DHT22;10973;46.706;12.340;2023-04-28T08:12:21;7.30;99.90
21622;DHT22;10973;46.706;12.340;2023-04-28T08:14:49;7.30;99.90
21622;DHT22;10973;46.706;12.340;2023-04-28T08:17:17;7.30;99.90
21622;DHT22;10973;46.706;12.340;2023-04-28T08:19:44;7.40;99.90
21622;DHT22;10973;46.706;12.340;2023-04-28T08:22:11;7.40;99.90
21622;DHT22;10973;46.706;12.340;2023-04-28T08:24:39;7.50;99.90
21622;DHT22;10973;46.706;12.340;2023-04-28T08:27:06;7.50;99.90
21622;DHT22;10973;46.706;12.340;2023-04-28T08:29:33;7.50;99.90
21622;DHT22;10973;46.706;12.340;2023-04-28T08:32:01;7.40;99.90
21622;DHT22;10973;46.706;12.340;2023-04-28T08:34:28;7.50;99.90
21622;DHT22;10973;46.706;12.340;2023-04-28T08:36:56;7.50;99.90
21622;DHT22;10973;46.706;12.340;2023-04-28T08:39:24;7.50;99.90
21622;DHT22;10973;46.706;12.340;2023-04-28T08:41:52;7.40;99.90
21622;DHT22;10973;46.706;12.340;2023-04-28T08:44:19;7.50;99.90
21622;DHT22;10973;46.706;12.340;2023-04-28T08:46:49;7.50;99.90
21622;DHT22;10973;46.706;12.340;2023-04-28T08:49:22;7.50;99.90
21622;DHT22;10973;46.706;12.340;2023-04-28T08:52:00;7.50;99.90
21622;DHT22;10973;46.706;12.340;2023-04-28T08:54:30;7.50;99.90
21622;DHT22;10973;46.706;12.340;2023-04-28T08:56:58;7.60;99.90
21622;DHT22;10973;46.706;12.340;2023-04-28T08:59:26;7.70;99.90
21622;DHT22;10973;46.706;12.340;2023-04-28T09:01:54;7.70;99.90
21622;DHT22;10973;46.706;12.340;2023-04-28T09:04:21;7.70;99.90
21622;DHT22;10973;46.706;12.340;2023-04-28T09:06:49;7.80;99.90
21622;DHT22;10973;46.706;12.340;2023-04-28T09:09:21;7.80;99.90
21622;DHT22;10973;46.706;12.340;2023-04-28T09:11:55;7.90;99.90
21622;DHT22;10973;46.706;12.340;2023-04-28T09:14:31;7.80;99.90
21622;DHT22;10973;46.706;12.340;2023-04-28T09:17:00;7.90;99.90
21622;DHT22;10973;46.706;12.340;2023-04-28T09:19:36;8.00;99.90
21622;DHT22;10973;46.706;12.340;2023-04-28T09:22:05;8.00;99.90
21622;DHT22;10973;46.706;12.340;2023-04-28T09:24:52;8.10;99.90
21622;DHT22;10973;46.706;12.340;2023-04-28T09:27:26;8.20;99.90
21622;DHT22;10973;46.706;12.340;2023-04-28T09:29:55;8.30;99.90
21622;DHT22;10973;46.706;12.340;2023-04-28T09:32:23;8.40;99.90
21622;DHT22;10973;46.706;12.340;2023-04-28T09:34:53;8.40;99.90
21622;DHT22;10973;46.706;12.340;2023-04-28T09:37:25;8.50;99.90
21622;DHT22;10973;46.706;12.340;2023-04-28T09:39:54;8.50;99.90
21622;DHT22;10973;46.706;12.340;2023-04-28T09:45:10;8.50;99.90
21622;DHT22;10973;46.706;12.340;2023-04-28T09:47:40;8.60;99.90
21622;DHT22;10973;46.706;12.340;2023-04-28T09:50:11;8.70;99.90
21622;DHT22;10973;46.706;12.340;2023-04-28T09:52:44;8.60;99.90
21622;DHT22;10973;46.706;12.340;2023-04-28T09:55:12;8.60;99.90
21622;DHT22;10973;46.706;12.340;2023-04-28T09:57:39;8.60;99.90
21622;DHT22;10973;46.706;12.340;2023-04-28T10:00:10;8.60;99.90
21622;DHT22;10973;46.706;12.340;2023-04-28T10:02:38;8.60;99.90
21622;DHT22;10973;46.706;12.340;2023-04-28T10:05:08;8.60;99.90
21622;DHT22;10973;46.706;12.340;2023-04-28T10:07:37;8.60;99.90
21622;DHT22;10973;46.706;12.340;2023-04-28T10:10:06;8.50;99.90
21622;DHT22;10973;46.706;12.340;2023-04-28T10:12:34;8.60;99.90
21622;DHT22;10973;46.706;12.340;2023-04-28T10:15:03;8.60;99.90
21622;DHT22;10973;46.706;12.340;2023-04-28T10:17:31;8.60;99.90
21622;DHT22;10973;46.706;12.340;2023-04-28T10:20:04;8.60;99.90
21622;DHT22;10973;46.706;12.340;2023-04-28T10:25:54;8.60;99.90
21622;DHT22;10973;46.706;12.340;2023-04-28T10:28:23;8.60;99.90
21622;DHT22;10973;46.706;12.340;2023-04-28T10:31:12;8.70;99.90
21622;DHT22;10973;46.706;12.340;2023-04-28T10:33:47;8.70;99.90
21622;DHT22;10973;46.706;12.340;2023-04-28T10:36:47;8.70;99.90
21622;DHT22;10973;46.706;12.340;2023-04-28T10:39:16;8.70;99.90
21622;DHT22;10973;46.706;12.340;2023-04-28T10:41:45;8.60;99.90
21622;DHT22;10973;46.706;12.340;2023-04-28T10:47:05;8.40;99.90
21622;DHT22;10973;46.706;12.340;2023-04-28T10:55:29;8.40;99.90
21622;DHT22;10973;46.706;12.340;2023-04-28T11:00:43;8.50;99.90
21622;DHT22;10973;46.706;12.340;2023-04-28T11:06:26;8.50;99.90
21622;DHT22;10973;46.706;12.340;2023-04-28T11:12:05;8.50;99.90
21622;DHT22;10973;46.706;12.340;2023-04-28T11:14:37;8.50;99.90
21622;DHT22;10973;46.706;12.340;2023-04-28T11:17:09;8.50;99.90
21622;DHT22;10973;46.706;12.340;2023-04-28T11:19:39;8.50;99.90
21622;DHT22;10973;46.706;12.340;2023-04-28T11:22:15;8.50;99.90
21622;DHT22;10973;46.706;12.340;2023-04-28T11:25:01;8.60;99.90
21622;DHT22;10973;46.706;12.340;2023-04-28T11:27:32;8.60;99.90
21622;DHT22;10973;46.706;12.340;2023-04-28T11:30:00;8.50;99.90
21622;DHT22;10973;46.706;12.340;2023-04-28T11:32:32;8.50;99.90
21622;DHT22;10973;46.706;12.340;2023-04-28T11:35:01;8.40;99.90
21622;DHT22;10973;46.706;12.340;2023-04-28T11:37:29;8.50;99.90
21622;DHT22;10973;46.706;12.340;2023-04-28T11:39:57;8.40;99.90
21622;DHT22;10973;46.706;12.340;2023-04-28T11:42:24;8.50;99.90
21622;DHT22;10973;46.706;12.340;2023-04-28T11:44:52;8.50;99.90
21622;DHT22;10973;46.706;12.340;2023-04-28T11:47:32;8.50;99.90
21622;DHT22;10973;46.706;12.340;2023-04-28T11:50:02;8.50;99.90
21622;DHT22;10973;46.706;12.340;2023-04-28T11:52:29;8.50;99.90
21622;DHT22;10973;46.706;12.340;2023-04-28T11:54:58;8.50;99.90
21622;DHT22;10973;46.706;12.340;2023-04-28T11:57:29;8.50;99.90
21622;DHT22;10973;46.706;12.340;2023-04-28T12:00:13;8.40;99.90
21622;DHT22;10973;46.706;12.340;2023-04-28T12:02:42;8.40;99.90
21622;DHT22;10973;46.706;12.340;2023-04-28T12:05:10;8.50;99.90
21622;DHT22;10973;46.706;12.340;2023-04-28T12:07:44;8.50;99.90
21622;DHT22;10973;46.706;12.340;2023-04-28T12:10:15;8.50;99.90
21622;DHT22;10973;46.706;12.340;2023-04-28T12:12:43;8.60;99.90
21622;DHT22;10973;46.706;12.340;2023-04-28T12:15:19;8.60;99.90
21622;DHT22;10973;46.706;12.340;2023-04-28T12:17:49;8.50;99.90
21622;DHT22;10973;46.706;12.340;2023-04-28T12:20:35;8.60;99.90
21622;DHT22;10973;46.706;12.340;2023-04-28T12:23:04;8.60;99.90
21622;DHT22;10973;46.706;12.340;2023-04-28T12:25:32;8.70;99.90
21622;DHT22;10973;46.706;12.340;2023-04-28T12:28:03;8.70;99.90
21622;DHT22;10973;46.706;12.340;2023-04-28T12:30:34;8.70;99.90
21622;DHT22;10973;46.706;12.340;2023-04-28T12:33:02;8.70;99.90
21622;DHT22;10973;46.706;12.340;2023-04-28T12:35:29;8.80;99.90
21622;DHT22;10973;46.706;12.340;2023-04-28T12:37:57;8.80;99.90
21622;DHT22;10973;46.706;12.340;2023-04-28T12:40:25;8.90;99.90
21622;DHT22;10973;46.706;12.340;2023-04-28T12:42:53;8.80;99.90
21622;DHT22;10973;46.706;12.340;2023-04-28T12:45:20;8.90;99.90
21622;DHT22;10973;46.706;12.340;2023-04-28T12:47:48;8.90;99.90
21622;DHT22;10973;46.706;12.340;2023-04-28T12:50:15;9.00;99.90
21622;DHT22;10973;46.706;12.340;2023-04-28T12:52:42;8.90;99.90
21622;DHT22;10973;46.706;12.340;2023-04-28T12:55:09;8.90;99.90
21622;DHT22;10973;46.706;12.340;2023-04-28T12:57:37;9.00;99.90
21622;DHT22;10973;46.706;12.340;2023-04-28T13:00:06;8.90;99.90
21622;DHT22;10973;46.706;12.340;2023-04-28T13:02:34;8.90;99.90
21622;DHT22;10973;46.706;12.340;2023-04-28T13:05:02;8.90;99.90
21622;DHT22;10973;46.706;12.340;2023-04-28T13:07:30;9.00;99.90
21622;DHT22;10973;46.706;12.340;2023-04-28T13:09:57;9.00;99.90
21622;DHT22;10973;46.706;12.340;2023-04-28T13:12:25;8.90;99.90
21622;DHT22;10973;46.706;12.340;2023-04-28T13:14:55;9.00;99.90
21622;DHT22;10973;46.706;12.340;2023-04-28T13:17:22;8.90;99.90
21622;DHT22;10973;46.706;12.340;2023-04-28T13:19:49;9.10;99.90
21622;DHT22;10973;46.706;12.340;2023-04-28T13:22:16;9.10;99.90
21622;DHT22;10973;46.706;12.340;2023-04-28T13:24:44;9.10;99.90
21622;DHT22;10973;46.706;12.340;2023-04-28T13:27:12;9.10;99.90
21622;DHT22;10973;46.706;12.340;2023-04-28T13:29:39;9.10;99.90
21622;DHT22;10973;46.706;12.340;2023-04-28T13:32:11;9.20;99.90
21622;DHT22;10973;46.706;12.340;2023-04-28T13:34:41;9.40;99.90
21622;DHT22;10973;46.706;12.340;2023-04-28T13:37:08;9.50;99.90
21622;DHT22;10973;46.706;12.340;2023-04-28T13:39:35;9.40;99.90
21622;DHT22;10973;46.706;12.340;2023-04-28T13:42:02;9.40;99.90
21622;DHT22;10973;46.706;12.340;2023-04-28T13:44:30;9.50;99.90
21622;DHT22;10973;46.706;12.340;2023-04-28T13:46:58;9.40;99.90
21622;DHT22;10973;46.706;12.340;2023-04-28T13:49:25;9.40;99.90
21622;DHT22;10973;46.706;12.340;2023-04-28T13:51:52;9.60;99.90
21622;DHT22;10973;46.706;12.340;2023-04-28T13:54:20;9.70;99.90
21622;DHT22;10973;46.706;12.340;2023-04-28T13:56:47;9.50;99.90
21622;DHT22;10973;46.706;12.340;2023-04-28T13:59:14;9.50;99.90
21622;DHT22;10973;46.706;12.340;2023-04-28T14:01:41;9.50;99.90
21622;DHT22;10973;46.706;12.340;2023-04-28T14:04:09;9.60;99.90
21622;DHT22;10973;46.706;12.340;2023-04-28T14:06:37;9.60;99.90
21622;DHT22;10973;46.706;12.340;2023-04-28T14:09:04;9.70;99.90
21622;DHT22;10973;46.706;12.340;2023-04-28T14:11:31;9.70;99.90
21622;DHT22;10973;46.706;12.340;2023-04-28T14:13:59;9.70;99.90
21622;DHT22;10973;46.706;12.340;2023-04-28T14:16:26;9.70;99.90
21622;DHT22;10973;46.706;12.340;2023-04-28T14:18:54;9.70;99.90
21622;DHT22;10973;46.706;12.340;2023-04-28T14:21:21;9.70;99.90
21622;DHT22;10973;46.706;12.340;2023-04-28T14:23:48;9.70;99.90
21622;DHT22;10973;46.706;12.340;2023-04-28T14:26:16;9.70;99.90
21622;DHT22;10973;46.706;12.340;2023-04-28T14:28:43;9.70;99.90
21622;DHT22;10973;46.706;12.340;2023-04-28T14:31:11;9.90;99.90
21622;DHT22;10973;46.706;12.340;2023-04-28T14:33:38;10.20;99.90
21622;DHT22;10973;46.706;12.340;2023-04-28T14:36:07;10.60;99.90
21622;DHT22;10973;46.706;12.340;2023-04-28T14:38:35;11.00;99.90
21622;DHT22;10973;46.706;12.340;2023-04-28T14:41:05;11.60;99.90
21622;DHT22;10973;46.706;12.340;2023-04-28T14:43:32;12.00;99.90
21622;DHT22;10973;46.706;12.340;2023-04-28T14:46:00;12.30;99.90
21622;DHT22;10973;46.706;12.340;2023-04-28T14:48:27;12.60;99.90
21622;DHT22;10973;46.706;12.340;2023-04-28T14:50:54;12.70;99.90
21622;DHT22;10973;46.706;12.340;2023-04-28T14:53:22;13.20;99.90
21622;DHT22;10973;46.706;12.340;2023-04-28T14:55:49;13.40;99.90
21622;DHT22;10973;46.706;12.340;2023-04-28T14:58:16;13.60;99.90
21622;DHT22;10973;46.706;12.340;2023-04-28T15:00:44;13.70;99.90
21622;DHT22;10973;46.706;12.340;2023-04-28T15:03:12;13.60;99.90
21622;DHT22;10973;46.706;12.340;2023-04-28T15:05:39;13.80;99.90
21622;DHT22;10973;46.706;12.340;2023-04-28T15:08:07;13.70;99.90
21622;DHT22;10973;46.706;12.340;2023-04-28T15:10:37;14.00;99.90
21622;DHT22;10973;46.706;12.340;2023-04-28T15:13:06;14.10;99.90
21622;DHT22;10973;46.706;12.340;2023-04-28T15:15:33;14.50;99.90
21622;DHT22;10973;46.706;12.340;2023-04-28T15:18:02;14.70;99.90
21622;DHT22;10973;46.706;12.340;2023-04-28T15:20:30;14.50;99.90
21622;DHT22;10973;46.706;12.340;2023-04-28T15:22:58;14.50;99.90
21622;DHT22;10973;46.706;12.340;2023-04-28T15:25:26;14.60;99.90
21622;DHT22;10973;46.706;12.340;2023-04-28T15:27:53;14.40;99.90
21622;DHT22;10973;46.706;12.340;2023-04-28T15:30:21;14.60;99.90
21622;DHT22;10973;46.706;12.340;2023-04-28T15:32:48;14.70;99.90
21622;DHT22;10973;46.706;12.340;2023-04-28T15:35:16;14.80;99.90
21622;DHT22;10973;46.706;12.340;2023-04-28T15:37:44;15.00;99.90
21622;DHT22;10973;46.706;12.340;2023-04-28T15:40:14;15.00;99.90
21622;DHT22;10973;46.706;12.340;2023-04-28T15:42:43;15.00;99.90
21622;DHT22;10973;46.706;12.340;2023-04-28T15:45:11;15.00;99.90
21622;DHT22;10973;46.706;12.340;2023-04-28T15:47:38;15.10;99.90
21622;DHT22;10973;46.706;12.340;2023-04-28T15:50:07;15.30;99.90
21622;DHT22;10973;46.706;12.340;2023-04-28T15:52:40;15.30;99.90
21622;DHT22;10973;46.706;12.340;2023-04-28T15:55:09;15.00;99.90
21622;DHT22;10973;46.706;12.340;2023-04-28T15:57:36;14.70;99.90
21622;DHT22;10973;46.706;12.340;2023-04-28T16:00:05;14.80;99.90
21622;DHT22;10973;46.706;12.340;2023-04-28T16:02:33;14.80;99.90
21622;DHT22;10973;46.706;12.340;2023-04-28T16:05:01;14.30;99.90
21622;DHT22;10973;46.706;12.340;2023-04-28T16:07:29;13.80;99.90
21622;DHT22;10973;46.706;12.340;2023-04-28T16:09:56;13.50;99.90
21622;DHT22;10973;46.706;12.340;2023-04-28T16:12:24;13.40;99.90
21622;DHT22;10973;46.706;12.340;2023-04-28T16:14:51;13.10;99.90
21622;DHT22;10973;46.706;12.340;2023-04-28T16:17:18;12.90;99.90
21622;DHT22;10973;46.706;12.340;2023-04-28T16:19:46;12.80;99.90
21622;DHT22;10973;46.706;12.340;2023-04-28T16:22:13;12.70;99.90
21622;DHT22;10973;46.706;12.340;2023-04-28T16:24:40;12.50;99.90
21622;DHT22;10973;46.706;12.340;2023-04-28T16:27:08;12.50;99.90
21622;DHT22;10973;46.706;12.340;2023-04-28T16:29:35;12.50;99.90